sensor_id;sensor_type;location;lat;lon;timestamp;P1;durP1;ratioP1;P2;durP2;ratioP2
17451;SDS011;8843;48.838;9.324;2022-09-23T00:00:11;3.87;;;3.10;;
17451;SDS011;8843;48.838;9.324;2022-09-23T00:02:38;3.77;;;2.97;;
17451;SDS011;8843;48.838;9.324;2022-09-23T00:05:08;5.10;;;2.80;;
17451;SDS011;8843;48.838;9.324;2022-09-23T00:07:35;2.97;;;2.73;;
17451;SDS011;8843;48.838;9.324;2022-09-23T00:10:02;3.43;;;2.87;;
17451;SDS011;8843;48.838;9.324;2022-09-23T00:12:30;4.20;;;2.90;;
17451;SDS011;8843;48.838;9.324;2022-09-23T00:14:57;5.30;;;2.63;;
17451;SDS011;8843;48.838;9.324;2022-09-23T00:17:24;3.70;;;2.93;;
17451;SDS011;8843;48.838;9.324;2022-09-23T00:19:51;3.30;;;3.00;;
17451;SDS011;8843;48.838;9.324;2022-09-23T00:22:20;4.77;;;2.87;;
17451;SDS011;8843;48.838;9.324;2022-09-23T00:24:48;3.03;;;2.70;;
17451;SDS011;8843;48.838;9.324;2022-09-23T00:27:14;3.50;;;2.53;;
17451;SDS011;8843;48.838;9.324;2022-09-23T00:29:45;4.57;;;3.60;;
17451;SDS011;8843;48.838;9.324;2022-09-23T00:32:12;3.57;;;3.10;;
17451;SDS011;8843;48.838;9.324;2022-09-23T00:34:39;3.37;;;2.57;;
17451;SDS011;8843;48.838;9.324;2022-09-23T00:37:08;3.83;;;2.60;;
17451;SDS011;8843;48.838;9.324;2022-09-23T00:39:37;5.23;;;3.30;;
17451;SDS011;8843;48.838;9.324;2022-09-23T00:42:04;4.07;;;2.77;;
17451;SDS011;8843;48.838;9.324;2022-09-23T00:44:45;4.33;;;2.97;;
17451;SDS011;8843;48.838;9.324;2022-09-23T00:47:18;2.77;;;2.40;;
17451;SDS011;8843;48.838;9.324;2022-09-23T00:49:48;5.00;;;3.07;;
17451;SDS011;8843;48.838;9.324;2022-09-23T00:52:24;3.83;;;3.13;;
17451;SDS011;8843;48.838;9.324;2022-09-23T00:54:53;4.10;;;3.70;;
17451;SDS011;8843;48.838;9.324;2022-09-23T00:57:23;3.37;;;3.07;;
17451;SDS011;8843;48.838;9.324;2022-09-23T00:59:52;3.67;;;3.10;;
17451;SDS011;8843;48.838;9.324;2022-09-23T01:02:20;3.53;;;3.23;;
17451;SDS011;8843;48.838;9.324;2022-09-23T01:04:48;4.30;;;3.07;;
17451;SDS011;8843;48.838;9.324;2022-09-23T01:07:15;3.10;;;2.80;;
17451;SDS011;8843;48.838;9.324;2022-09-23T01:09:43;4.37;;;2.83;;
17451;SDS011;8843;48.838;9.324;2022-09-23T01:12:15;3.57;;;2.90;;
17451;SDS011;8843;48.838;9.324;2022-09-23T01:14:53;2.77;;;2.57;;
17451;SDS011;8843;48.838;9.324;2022-09-23T01:17:33;3.23;;;2.93;;
17451;SDS011;8843;48.838;9.324;2022-09-23T01:20:18;3.73;;;3.43;;
17451;SDS011;8843;48.838;9.324;2022-09-23T01:23:12;3.27;;;2.93;;
17451;SDS011;8843;48.838;9.324;2022-09-23T01:26:12;3.87;;;2.80;;
17451;SDS011;8843;48.838;9.324;2022-09-23T01:29:01;3.53;;;2.80;;
17451;SDS011;8843;48.838;9.324;2022-09-23T01:31:50;4.27;;;3.07;;
17451;SDS011;8843;48.838;9.324;2022-09-23T01:34:24;4.07;;;2.57;;
17451;SDS011;8843;48.838;9.324;2022-09-23T01:36:59;3.13;;;2.83;;
17451;SDS011;8843;48.838;9.324;2022-09-23T01:39:33;2.97;;;2.73;;
17451;SDS011;8843;48.838;9.324;2022-09-23T01:42:04;3.53;;;2.60;;
17451;SDS011;8843;48.838;9.324;2022-09-23T01:44:41;3.33;;;2.97;;
17451;SDS011;8843;48.838;9.324;2022-09-23T01:47:13;2.80;;;2.60;;
17451;SDS011;8843;48.838;9.324;2022-09-23T01:49:44;3.20;;;2.87;;
17451;SDS011;8843;48.838;9.324;2022-09-23T01:52:17;3.30;;;2.63;;
17451;SDS011;8843;48.838;9.324;2022-09-23T01:54:51;2.93;;;2.70;;
17451;SDS011;8843;48.838;9.324;2022-09-23T01:57:24;3.73;;;2.87;;
17451;SDS011;8843;48.838;9.324;2022-09-23T01:59:57;3.90;;;2.80;;
17451;SDS011;8843;48.838;9.324;2022-09-23T02:02:31;2.90;;;2.53;;
17451;SDS011;8843;48.838;9.324;2022-09-23T02:05:02;3.63;;;2.70;;
17451;SDS011;8843;48.838;9.324;2022-09-23T02:07:33;2.93;;;2.70;;
17451;SDS011;8843;48.838;9.324;2022-09-23T02:10:05;3.03;;;2.83;;
17451;SDS011;8843;48.838;9.324;2022-09-23T02:12:38;3.63;;;2.50;;
17451;SDS011;8843;48.838;9.324;2022-09-23T02:15:10;3.67;;;2.57;;
17451;SDS011;8843;48.838;9.324;2022-09-23T02:17:43;4.40;;;3.03;;
17451;SDS011;8843;48.838;9.324;2022-09-23T02:20:12;3.03;;;2.70;;
17451;SDS011;8843;48.838;9.324;2022-09-23T02:22:46;3.00;;;2.80;;
17451;SDS011;8843;48.838;9.324;2022-09-23T02:25:17;3.27;;;2.63;;
17451;SDS011;8843;48.838;9.324;2022-09-23T02:27:46;2.83;;;2.53;;
17451;SDS011;8843;48.838;9.324;2022-09-23T02:30:19;3.27;;;2.50;;
17451;SDS011;8843;48.838;9.324;2022-09-23T02:32:53;2.90;;;2.60;;
17451;SDS011;8843;48.838;9.324;2022-09-23T02:35:26;3.33;;;3.03;;
17451;SDS011;8843;48.838;9.324;2022-09-23T02:38:00;3.50;;;2.70;;
17451;SDS011;8843;48.838;9.324;2022-09-23T02:40:39;3.07;;;2.50;;
17451;SDS011;8843;48.838;9.324;2022-09-23T02:43:14;3.53;;;2.73;;
17451;SDS011;8843;48.838;9.324;2022-09-23T02:45:46;3.00;;;2.70;;
17451;SDS011;8843;48.838;9.324;2022-09-23T02:48:16;3.17;;;2.80;;
17451;SDS011;8843;48.838;9.324;2022-09-23T02:50:46;3.87;;;2.90;;
17451;SDS011;8843;48.838;9.324;2022-09-23T02:53:13;3.27;;;2.63;;
17451;SDS011;8843;48.838;9.324;2022-09-23T02:55:41;2.73;;;2.50;;
17451;SDS011;8843;48.838;9.324;2022-09-23T02:58:08;4.60;;;3.07;;
17451;SDS011;8843;48.838;9.324;2022-09-23T03:00:41;2.80;;;2.57;;
17451;SDS011;8843;48.838;9.324;2022-09-23T03:03:34;3.17;;;2.83;;
17451;SDS011;8843;48.838;9.324;2022-09-23T03:06:07;3.10;;;2.80;;
17451;SDS011;8843;48.838;9.324;2022-09-23T03:08:43;3.00;;;2.80;;
17451;SDS011;8843;48.838;9.324;2022-09-23T03:11:14;4.13;;;2.80;;
17451;SDS011;8843;48.838;9.324;2022-09-23T03:13:54;4.27;;;2.80;;
17451;SDS011;8843;48.838;9.324;2022-09-23T03:16:32;4.33;;;2.50;;
17451;SDS011;8843;48.838;9.324;2022-09-23T03:19:09;3.47;;;2.70;;
17451;SDS011;8843;48.838;9.324;2022-09-23T03:21:45;2.63;;;2.43;;
17451;SDS011;8843;48.838;9.324;2022-09-23T03:24:16;4.07;;;2.70;;
17451;SDS011;8843;48.838;9.324;2022-09-23T03:26:45;2.60;;;2.40;;
17451;SDS011;8843;48.838;9.324;2022-09-23T03:29:13;3.37;;;2.87;;
17451;SDS011;8843;48.838;9.324;2022-09-23T03:31:42;3.50;;;2.93;;
17451;SDS011;8843;48.838;9.324;2022-09-23T03:34:12;2.70;;;2.50;;
17451;SDS011;8843;48.838;9.324;2022-09-23T03:36:45;3.30;;;2.20;;
17451;SDS011;8843;48.838;9.324;2022-09-23T03:39:22;4.53;;;2.87;;
17451;SDS011;8843;48.838;9.324;2022-09-23T03:41:54;4.17;;;2.70;;
17451;SDS011;8843;48.838;9.324;2022-09-23T03:44:24;4.27;;;2.80;;
17451;SDS011;8843;48.838;9.324;2022-09-23T03:46:53;2.60;;;2.40;;
17451;SDS011;8843;48.838;9.324;2022-09-23T03:49:24;3.03;;;2.77;;
17451;SDS011;8843;48.838;9.324;2022-09-23T03:51:53;2.97;;;2.67;;
17451;SDS011;8843;48.838;9.324;2022-09-23T03:54:20;3.47;;;2.73;;
17451;SDS011;8843;48.838;9.324;2022-09-23T03:56:47;3.27;;;2.63;;
17451;SDS011;8843;48.838;9.324;2022-09-23T03:59:14;3.30;;;2.30;;
17451;SDS011;8843;48.838;9.324;2022-09-23T04:01:41;2.67;;;2.47;;
17451;SDS011;8843;48.838;9.324;2022-09-23T04:04:08;2.80;;;2.50;;
17451;SDS011;8843;48.838;9.324;2022-09-23T04:06:36;4.40;;;2.83;;
17451;SDS011;8843;48.838;9.324;2022-09-23T04:09:03;3.70;;;2.87;;
17451;SDS011;8843;48.838;9.324;2022-09-23T04:11:30;3.20;;;2.90;;
17451;SDS011;8843;48.838;9.324;2022-09-23T04:13:57;2.97;;;2.77;;
17451;SDS011;8843;48.838;9.324;2022-09-23T04:16:24;2.50;;;2.30;;
17451;SDS011;8843;48.838;9.324;2022-09-23T04:18:51;3.63;;;2.57;;
17451;SDS011;8843;48.838;9.324;2022-09-23T04:21:18;4.77;;;2.70;;
17451;SDS011;8843;48.838;9.324;2022-09-23T04:23:46;2.83;;;2.47;;
17451;SDS011;8843;48.838;9.324;2022-09-23T04:26:13;2.73;;;2.53;;
17451;SDS011;8843;48.838;9.324;2022-09-23T04:28:40;2.93;;;2.43;;
17451;SDS011;8843;48.838;9.324;2022-09-23T04:31:07;3.10;;;2.80;;
17451;SDS011;8843;48.838;9.324;2022-09-23T04:33:34;2.63;;;2.43;;
17451;SDS011;8843;48.838;9.324;2022-09-23T04:36:01;2.90;;;2.60;;
17451;SDS011;8843;48.838;9.324;2022-09-23T04:38:28;4.03;;;2.50;;
17451;SDS011;8843;48.838;9.324;2022-09-23T04:40:57;5.53;;;2.30;;
17451;SDS011;8843;48.838;9.324;2022-09-23T04:43:24;2.50;;;2.30;;
17451;SDS011;8843;48.838;9.324;2022-09-23T04:46:00;2.77;;;2.50;;
17451;SDS011;8843;48.838;9.324;2022-09-23T04:48:29;2.47;;;2.23;;
17451;SDS011;8843;48.838;9.324;2022-09-23T04:51:00;2.60;;;2.40;;
17451;SDS011;8843;48.838;9.324;2022-09-23T04:53:27;2.87;;;2.37;;
17451;SDS011;8843;48.838;9.324;2022-09-23T04:55:54;3.20;;;2.60;;
17451;SDS011;8843;48.838;9.324;2022-09-23T04:58:28;2.97;;;2.57;;
17451;SDS011;8843;48.838;9.324;2022-09-23T05:00:55;2.70;;;2.50;;
17451;SDS011;8843;48.838;9.324;2022-09-23T05:03:22;3.07;;;2.83;;
17451;SDS011;8843;48.838;9.324;2022-09-23T05:05:49;3.10;;;2.73;;
17451;SDS011;8843;48.838;9.324;2022-09-23T05:08:19;2.87;;;2.63;;
17451;SDS011;8843;48.838;9.324;2022-09-23T05:10:46;3.43;;;3.13;;
17451;SDS011;8843;48.838;9.324;2022-09-23T05:13:15;2.73;;;2.20;;
17451;SDS011;8843;48.838;9.324;2022-09-23T05:15:41;3.07;;;2.60;;
17451;SDS011;8843;48.838;9.324;2022-09-23T05:18:08;5.20;;;2.40;;
17451;SDS011;8843;48.838;9.324;2022-09-23T05:20:35;3.20;;;2.90;;
17451;SDS011;8843;48.838;9.324;2022-09-23T05:23:02;2.77;;;2.57;;
17451;SDS011;8843;48.838;9.324;2022-09-23T05:25:29;3.73;;;3.37;;
17451;SDS011;8843;48.838;9.324;2022-09-23T05:27:56;4.20;;;3.83;;
17451;SDS011;8843;48.838;9.324;2022-09-23T05:30:24;5.47;;;3.73;;
17451;SDS011;8843;48.838;9.324;2022-09-23T05:32:51;5.03;;;4.53;;
17451;SDS011;8843;48.838;9.324;2022-09-23T05:35:18;4.70;;;4.00;;
17451;SDS011;8843;48.838;9.324;2022-09-23T05:37:45;4.13;;;3.13;;
17451;SDS011;8843;48.838;9.324;2022-09-23T05:40:11;3.90;;;3.50;;
17451;SDS011;8843;48.838;9.324;2022-09-23T05:42:38;4.57;;;3.27;;
17451;SDS011;8843;48.838;9.324;2022-09-23T05:45:06;4.80;;;3.20;;
17451;SDS011;8843;48.838;9.324;2022-09-23T05:47:34;3.80;;;3.40;;
17451;SDS011;8843;48.838;9.324;2022-09-23T05:50:02;3.97;;;3.67;;
17451;SDS011;8843;48.838;9.324;2022-09-23T05:52:29;4.63;;;3.63;;
17451;SDS011;8843;48.838;9.324;2022-09-23T05:54:58;3.70;;;3.40;;
17451;SDS011;8843;48.838;9.324;2022-09-23T05:57:26;5.23;;;3.17;;
17451;SDS011;8843;48.838;9.324;2022-09-23T05:59:53;5.63;;;3.50;;
17451;SDS011;8843;48.838;9.324;2022-09-23T06:02:20;3.50;;;3.20;;
17451;SDS011;8843;48.838;9.324;2022-09-23T06:04:48;4.77;;;3.97;;
17451;SDS011;8843;48.838;9.324;2022-09-23T06:07:15;3.50;;;3.17;;
17451;SDS011;8843;48.838;9.324;2022-09-23T06:09:42;5.70;;;3.57;;
17451;SDS011;8843;48.838;9.324;2022-09-23T06:12:09;6.37;;;3.90;;
17451;SDS011;8843;48.838;9.324;2022-09-23T06:14:38;5.53;;;3.67;;
17451;SDS011;8843;48.838;9.324;2022-09-23T06:17:05;4.27;;;3.40;;
17451;SDS011;8843;48.838;9.324;2022-09-23T06:19:31;4.73;;;3.50;;
17451;SDS011;8843;48.838;9.324;2022-09-23T06:22:00;4.57;;;3.40;;
17451;SDS011;8843;48.838;9.324;2022-09-23T06:24:26;4.77;;;3.37;;
17451;SDS011;8843;48.838;9.324;2022-09-23T06:26:53;4.20;;;3.20;;
17451;SDS011;8843;48.838;9.324;2022-09-23T06:29:20;3.37;;;3.07;;
17451;SDS011;8843;48.838;9.324;2022-09-23T06:31:47;3.73;;;2.40;;
17451;SDS011;8843;48.838;9.324;2022-09-23T06:34:14;3.27;;;2.90;;
17451;SDS011;8843;48.838;9.324;2022-09-23T06:36:42;4.20;;;3.13;;
17451;SDS011;8843;48.838;9.324;2022-09-23T06:39:10;3.83;;;3.17;;
17451;SDS011;8843;48.838;9.324;2022-09-23T06:41:37;3.30;;;3.00;;
17451;SDS011;8843;48.838;9.324;2022-09-23T06:44:04;4.37;;;3.17;;
17451;SDS011;8843;48.838;9.324;2022-09-23T06:46:31;3.53;;;2.73;;
17451;SDS011;8843;48.838;9.324;2022-09-23T06:48:58;3.33;;;2.90;;
17451;SDS011;8843;48.838;9.324;2022-09-23T06:51:26;3.77;;;3.07;;
17451;SDS011;8843;48.838;9.324;2022-09-23T06:53:52;3.73;;;3.33;;
17451;SDS011;8843;48.838;9.324;2022-09-23T06:56:21;2.80;;;2.60;;
17451;SDS011;8843;48.838;9.324;2022-09-23T06:58:50;4.33;;;3.00;;
17451;SDS011;8843;48.838;9.324;2022-09-23T07:01:17;3.33;;;3.03;;
17451;SDS011;8843;48.838;9.324;2022-09-23T07:03:44;2.67;;;2.47;;
17451;SDS011;8843;48.838;9.324;2022-09-23T07:06:12;5.20;;;3.13;;
17451;SDS011;8843;48.838;9.324;2022-09-23T07:08:41;4.53;;;2.90;;
17451;SDS011;8843;48.838;9.324;2022-09-23T07:11:08;3.20;;;2.90;;
17451;SDS011;8843;48.838;9.324;2022-09-23T07:13:38;5.37;;;2.80;;
17451;SDS011;8843;48.838;9.324;2022-09-23T07:16:06;4.80;;;3.60;;
17451;SDS011;8843;48.838;9.324;2022-09-23T07:18:34;3.60;;;3.10;;
17451;SDS011;8843;48.838;9.324;2022-09-23T07:21:06;5.30;;;3.40;;
17451;SDS011;8843;48.838;9.324;2022-09-23T07:23:34;3.40;;;3.10;;
17451;SDS011;8843;48.838;9.324;2022-09-23T07:26:02;4.00;;;3.10;;
17451;SDS011;8843;48.838;9.324;2022-09-23T07:28:31;3.90;;;2.83;;
17451;SDS011;8843;48.838;9.324;2022-09-23T07:31:02;3.40;;;3.10;;
17451;SDS011;8843;48.838;9.324;2022-09-23T07:33:31;3.80;;;3.40;;
17451;SDS011;8843;48.838;9.324;2022-09-23T07:35:58;5.70;;;3.60;;
17451;SDS011;8843;48.838;9.324;2022-09-23T07:38:29;6.43;;;3.13;;
17451;SDS011;8843;48.838;9.324;2022-09-23T07:40:59;3.10;;;2.87;;
17451;SDS011;8843;48.838;9.324;2022-09-23T07:43:27;3.97;;;3.67;;
17451;SDS011;8843;48.838;9.324;2022-09-23T07:45:56;3.70;;;3.07;;
17451;SDS011;8843;48.838;9.324;2022-09-23T07:48:25;4.53;;;3.27;;
17451;SDS011;8843;48.838;9.324;2022-09-23T07:50:53;3.47;;;3.17;;
17451;SDS011;8843;48.838;9.324;2022-09-23T07:53:20;4.30;;;3.00;;
17451;SDS011;8843;48.838;9.324;2022-09-23T07:55:51;4.43;;;2.93;;
17451;SDS011;8843;48.838;9.324;2022-09-23T07:58:19;7.10;;;2.73;;
17451;SDS011;8843;48.838;9.324;2022-09-23T08:00:46;3.57;;;2.63;;
17451;SDS011;8843;48.838;9.324;2022-09-23T08:03:13;3.57;;;3.20;;
17451;SDS011;8843;48.838;9.324;2022-09-23T08:05:41;3.40;;;2.87;;
17451;SDS011;8843;48.838;9.324;2022-09-23T08:08:08;3.00;;;2.70;;
17451;SDS011;8843;48.838;9.324;2022-09-23T08:10:34;3.97;;;2.73;;
17451;SDS011;8843;48.838;9.324;2022-09-23T08:13:01;3.70;;;3.40;;
17451;SDS011;8843;48.838;9.324;2022-09-23T08:15:28;3.23;;;2.93;;
17451;SDS011;8843;48.838;9.324;2022-09-23T08:17:56;4.57;;;2.90;;
17451;SDS011;8843;48.838;9.324;2022-09-23T08:20:25;3.07;;;2.70;;
17451;SDS011;8843;48.838;9.324;2022-09-23T08:23:12;2.87;;;2.57;;
17451;SDS011;8843;48.838;9.324;2022-09-23T08:25:41;3.67;;;2.90;;
17451;SDS011;8843;48.838;9.324;2022-09-23T08:28:10;3.30;;;3.00;;
17451;SDS011;8843;48.838;9.324;2022-09-23T08:30:40;3.17;;;2.87;;
17451;SDS011;8843;48.838;9.324;2022-09-23T08:33:07;3.67;;;2.97;;
17451;SDS011;8843;48.838;9.324;2022-09-23T08:35:35;3.37;;;3.07;;
17451;SDS011;8843;48.838;9.324;2022-09-23T08:38:01;2.70;;;2.50;;
17451;SDS011;8843;48.838;9.324;2022-09-23T08:40:30;2.97;;;2.60;;
17451;SDS011;8843;48.838;9.324;2022-09-23T08:42:59;3.90;;;2.60;;
17451;SDS011;8843;48.838;9.324;2022-09-23T08:45:26;2.83;;;2.50;;
17451;SDS011;8843;48.838;9.324;2022-09-23T08:47:54;3.00;;;2.70;;
17451;SDS011;8843;48.838;9.324;2022-09-23T08:50:25;3.63;;;2.60;;
17451;SDS011;8843;48.838;9.324;2022-09-23T08:52:56;3.80;;;2.77;;
17451;SDS011;8843;48.838;9.324;2022-09-23T08:55:27;3.00;;;2.70;;
17451;SDS011;8843;48.838;9.324;2022-09-23T08:58:04;2.70;;;2.50;;
17451;SDS011;8843;48.838;9.324;2022-09-23T09:00:47;3.03;;;2.73;;
17451;SDS011;8843;48.838;9.324;2022-09-23T09:03:21;2.73;;;2.53;;
17451;SDS011;8843;48.838;9.324;2022-09-23T09:05:50;5.40;;;2.80;;
17451;SDS011;8843;48.838;9.324;2022-09-23T09:08:20;3.03;;;2.83;;
17451;SDS011;8843;48.838;9.324;2022-09-23T09:10:52;3.13;;;2.60;;
17451;SDS011;8843;48.838;9.324;2022-09-23T09:13:22;3.20;;;2.90;;
17451;SDS011;8843;48.838;9.324;2022-09-23T09:15:59;3.93;;;2.77;;
17451;SDS011;8843;48.838;9.324;2022-09-23T09:18:36;2.60;;;2.40;;
17451;SDS011;8843;48.838;9.324;2022-09-23T09:21:10;3.93;;;2.80;;
17451;SDS011;8843;48.838;9.324;2022-09-23T09:23:39;3.00;;;2.70;;
17451;SDS011;8843;48.838;9.324;2022-09-23T09:26:15;2.67;;;2.47;;
17451;SDS011;8843;48.838;9.324;2022-09-23T09:28:45;2.93;;;2.70;;
17451;SDS011;8843;48.838;9.324;2022-09-23T09:31:18;4.17;;;2.50;;
17451;SDS011;8843;48.838;9.324;2022-09-23T09:33:51;4.07;;;2.70;;
17451;SDS011;8843;48.838;9.324;2022-09-23T09:36:25;5.23;;;2.90;;
17451;SDS011;8843;48.838;9.324;2022-09-23T09:39:00;3.30;;;3.00;;
17451;SDS011;8843;48.838;9.324;2022-09-23T09:41:28;6.90;;;2.90;;
17451;SDS011;8843;48.838;9.324;2022-09-23T09:43:56;2.70;;;2.50;;
17451;SDS011;8843;48.838;9.324;2022-09-23T09:49:23;3.10;;;2.80;;
17451;SDS011;8843;48.838;9.324;2022-09-23T09:54:46;2.70;;;2.50;;
17451;SDS011;8843;48.838;9.324;2022-09-23T10:00:16;3.57;;;2.40;;
17451;SDS011;8843;48.838;9.324;2022-09-23T10:03:00;3.20;;;2.83;;
17451;SDS011;8843;48.838;9.324;2022-09-23T10:05:29;5.57;;;2.47;;
17451;SDS011;8843;48.838;9.324;2022-09-23T10:08:04;2.60;;;2.33;;
17451;SDS011;8843;48.838;9.324;2022-09-23T10:10:49;4.07;;;2.60;;
17451;SDS011;8843;48.838;9.324;2022-09-23T10:13:20;4.27;;;2.90;;
17451;SDS011;8843;48.838;9.324;2022-09-23T10:15:48;4.73;;;2.47;;
17451;SDS011;8843;48.838;9.324;2022-09-23T10:18:19;5.03;;;2.73;;
17451;SDS011;8843;48.838;9.324;2022-09-23T10:20:48;2.43;;;2.23;;
17451;SDS011;8843;48.838;9.324;2022-09-23T10:23:17;2.30;;;2.10;;
17451;SDS011;8843;48.838;9.324;2022-09-23T10:25:55;3.17;;;2.87;;
17451;SDS011;8843;48.838;9.324;2022-09-23T10:28:37;4.13;;;2.20;;
17451;SDS011;8843;48.838;9.324;2022-09-23T10:31:07;4.23;;;2.67;;
17451;SDS011;8843;48.838;9.324;2022-09-23T10:33:40;2.93;;;2.40;;
17451;SDS011;8843;48.838;9.324;2022-09-23T10:36:13;4.37;;;2.50;;
17451;SDS011;8843;48.838;9.324;2022-09-23T10:38:41;2.93;;;2.30;;
17451;SDS011;8843;48.838;9.324;2022-09-23T10:41:11;3.27;;;2.47;;
17451;SDS011;8843;48.838;9.324;2022-09-23T10:44:10;3.33;;;2.60;;
17451;SDS011;8843;48.838;9.324;2022-09-23T10:47:12;4.40;;;2.13;;
17451;SDS011;8843;48.838;9.324;2022-09-23T10:49:57;2.97;;;2.33;;
17451;SDS011;8843;48.838;9.324;2022-09-23T10:52:37;3.77;;;2.20;;
17451;SDS011;8843;48.838;9.324;2022-09-23T10:55:14;2.87;;;2.60;;
17451;SDS011;8843;48.838;9.324;2022-09-23T10:58:01;4.17;;;2.50;;
17451;SDS011;8843;48.838;9.324;2022-09-23T11:01:00;3.17;;;2.17;;
17451;SDS011;8843;48.838;9.324;2022-09-23T11:06:36;4.70;;;2.73;;
17451;SDS011;8843;48.838;9.324;2022-09-23T11:09:18;5.37;;;2.70;;
17451;SDS011;8843;48.838;9.324;2022-09-23T11:11:58;3.07;;;2.27;;
17451;SDS011;8843;48.838;9.324;2022-09-23T11:14:44;5.20;;;2.57;;
17451;SDS011;8843;48.838;9.324;2022-09-23T11:17:28;2.57;;;2.20;;
17451;SDS011;8843;48.838;9.324;2022-09-23T11:20:20;4.43;;;2.07;;
17451;SDS011;8843;48.838;9.324;2022-09-23T11:23:02;2.67;;;2.47;;
17451;SDS011;8843;48.838;9.324;2022-09-23T11:25:58;2.83;;;2.50;;
17451;SDS011;8843;48.838;9.324;2022-09-23T11:28:40;2.90;;;2.27;;
17451;SDS011;8843;48.838;9.324;2022-09-23T11:31:36;2.07;;;1.93;;
17451;SDS011;8843;48.838;9.324;2022-09-23T11:34:11;9.23;;;2.30;;
17451;SDS011;8843;48.838;9.324;2022-09-23T11:36:55;2.77;;;2.33;;
17451;SDS011;8843;48.838;9.324;2022-09-23T11:39:29;2.50;;;2.27;;
17451;SDS011;8843;48.838;9.324;2022-09-23T11:42:02;3.63;;;2.67;;
17451;SDS011;8843;48.838;9.324;2022-09-23T11:44:37;4.03;;;2.33;;
17451;SDS011;8843;48.838;9.324;2022-09-23T11:47:09;4.00;;;2.23;;
17451;SDS011;8843;48.838;9.324;2022-09-23T11:49:46;6.93;;;2.40;;
17451;SDS011;8843;48.838;9.324;2022-09-23T11:52:20;2.50;;;1.70;;
17451;SDS011;8843;48.838;9.324;2022-09-23T11:54:51;3.60;;;2.13;;
17451;SDS011;8843;48.838;9.324;2022-09-23T11:57:23;2.63;;;2.03;;
17451;SDS011;8843;48.838;9.324;2022-09-23T11:59:55;5.13;;;2.40;;
17451;SDS011;8843;48.838;9.324;2022-09-23T12:02:27;3.37;;;2.70;;
17451;SDS011;8843;48.838;9.324;2022-09-23T12:05:04;2.60;;;2.37;;
17451;SDS011;8843;48.838;9.324;2022-09-23T12:07:39;3.60;;;2.30;;
17451;SDS011;8843;48.838;9.324;2022-09-23T12:10:17;2.93;;;2.20;;
17451;SDS011;8843;48.838;9.324;2022-09-23T12:12:47;4.83;;;2.83;;
17451;SDS011;8843;48.838;9.324;2022-09-23T12:15:25;2.77;;;2.47;;
17451;SDS011;8843;48.838;9.324;2022-09-23T12:21:20;2.97;;;2.30;;
17451;SDS011;8843;48.838;9.324;2022-09-23T12:24:00;3.30;;;2.20;;
17451;SDS011;8843;48.838;9.324;2022-09-23T12:26:42;4.63;;;2.50;;
17451;SDS011;8843;48.838;9.324;2022-09-23T12:29:17;3.47;;;2.70;;
17451;SDS011;8843;48.838;9.324;2022-09-23T12:31:44;2.73;;;2.37;;
17451;SDS011;8843;48.838;9.324;2022-09-23T12:34:18;5.07;;;2.30;;
17451;SDS011;8843;48.838;9.324;2022-09-23T12:36:49;2.67;;;2.20;;
17451;SDS011;8843;48.838;9.324;2022-09-23T12:39:16;2.07;;;1.90;;
17451;SDS011;8843;48.838;9.324;2022-09-23T12:41:52;2.90;;;2.10;;
17451;SDS011;8843;48.838;9.324;2022-09-23T12:44:28;4.80;;;2.10;;
17451;SDS011;8843;48.838;9.324;2022-09-23T12:56:14;2.80;;;2.60;;
17451;SDS011;8843;48.838;9.324;2022-09-23T12:58:59;4.10;;;3.00;;
17451;SDS011;8843;48.838;9.324;2022-09-23T13:01:35;4.50;;;3.10;;
17451;SDS011;8843;48.838;9.324;2022-09-23T13:04:02;3.50;;;3.20;;
17451;SDS011;8843;48.838;9.324;2022-09-23T13:06:52;3.30;;;3.00;;
17451;SDS011;8843;48.838;9.324;2022-09-23T13:09:24;3.03;;;2.73;;
17451;SDS011;8843;48.838;9.324;2022-09-23T13:11:56;3.27;;;2.97;;
17451;SDS011;8843;48.838;9.324;2022-09-23T13:14:25;5.07;;;3.33;;
17451;SDS011;8843;48.838;9.324;2022-09-23T13:16:56;5.83;;;3.77;;
17451;SDS011;8843;48.838;9.324;2022-09-23T13:22:38;5.83;;;2.77;;
17451;SDS011;8843;48.838;9.324;2022-09-23T13:25:13;3.53;;;2.93;;
17451;SDS011;8843;48.838;9.324;2022-09-23T13:27:46;3.77;;;2.43;;
17451;SDS011;8843;48.838;9.324;2022-09-23T13:30:17;7.03;;;2.80;;
17451;SDS011;8843;48.838;9.324;2022-09-23T13:32:48;3.83;;;3.17;;
17451;SDS011;8843;48.838;9.324;2022-09-23T13:35:23;3.77;;;3.10;;
17451;SDS011;8843;48.838;9.324;2022-09-23T13:37:54;3.27;;;2.67;;
17451;SDS011;8843;48.838;9.324;2022-09-23T13:40:22;5.07;;;2.97;;
17451;SDS011;8843;48.838;9.324;2022-09-23T13:42:53;4.93;;;3.20;;
17451;SDS011;8843;48.838;9.324;2022-09-23T13:45:23;5.97;;;3.13;;
17451;SDS011;8843;48.838;9.324;2022-09-23T13:47:52;4.53;;;3.13;;
17451;SDS011;8843;48.838;9.324;2022-09-23T13:50:23;4.63;;;3.50;;
17451;SDS011;8843;48.838;9.324;2022-09-23T13:52:51;4.80;;;2.83;;
17451;SDS011;8843;48.838;9.324;2022-09-23T13:55:24;5.90;;;3.53;;
17451;SDS011;8843;48.838;9.324;2022-09-23T13:57:58;6.07;;;4.00;;
17451;SDS011;8843;48.838;9.324;2022-09-23T14:00:29;3.57;;;3.17;;
17451;SDS011;8843;48.838;9.324;2022-09-23T14:03:00;7.67;;;3.73;;
17451;SDS011;8843;48.838;9.324;2022-09-23T14:05:31;5.53;;;3.10;;
17451;SDS011;8843;48.838;9.324;2022-09-23T14:08:00;6.27;;;3.50;;
17451;SDS011;8843;48.838;9.324;2022-09-23T14:10:27;3.17;;;2.87;;
17451;SDS011;8843;48.838;9.324;2022-09-23T14:12:55;4.67;;;2.90;;
17451;SDS011;8843;48.838;9.324;2022-09-23T14:15:24;6.43;;;3.47;;
17451;SDS011;8843;48.838;9.324;2022-09-23T14:17:52;4.83;;;3.30;;
17451;SDS011;8843;48.838;9.324;2022-09-23T14:20:27;4.80;;;3.13;;
17451;SDS011;8843;48.838;9.324;2022-09-23T14:25:36;3.50;;;3.00;;
17451;SDS011;8843;48.838;9.324;2022-09-23T14:28:05;3.50;;;3.17;;
17451;SDS011;8843;48.838;9.324;2022-09-23T14:30:33;4.93;;;3.27;;
17451;SDS011;8843;48.838;9.324;2022-09-23T14:33:07;3.97;;;3.27;;
17451;SDS011;8843;48.838;9.324;2022-09-23T14:35:37;6.23;;;4.20;;
17451;SDS011;8843;48.838;9.324;2022-09-23T14:38:06;4.87;;;3.90;;
17451;SDS011;8843;48.838;9.324;2022-09-23T14:40:51;3.90;;;3.50;;
17451;SDS011;8843;48.838;9.324;2022-09-23T14:43:39;4.90;;;3.73;;
17451;SDS011;8843;48.838;9.324;2022-09-23T14:46:14;4.33;;;3.33;;
17451;SDS011;8843;48.838;9.324;2022-09-23T14:48:43;5.17;;;2.97;;
17451;SDS011;8843;48.838;9.324;2022-09-23T14:51:19;7.93;;;3.53;;
17451;SDS011;8843;48.838;9.324;2022-09-23T14:53:46;5.07;;;3.67;;
17451;SDS011;8843;48.838;9.324;2022-09-23T14:56:14;4.57;;;2.97;;
17451;SDS011;8843;48.838;9.324;2022-09-23T14:58:51;5.33;;;2.83;;
17451;SDS011;8843;48.838;9.324;2022-09-23T15:01:24;3.73;;;2.87;;
17451;SDS011;8843;48.838;9.324;2022-09-23T15:03:58;3.93;;;2.80;;
17451;SDS011;8843;48.838;9.324;2022-09-23T15:06:34;7.10;;;3.20;;
17451;SDS011;8843;48.838;9.324;2022-09-23T15:09:03;3.90;;;3.30;;
17451;SDS011;8843;48.838;9.324;2022-09-23T15:11:31;5.23;;;3.43;;
17451;SDS011;8843;48.838;9.324;2022-09-23T15:13:58;4.00;;;2.60;;
17451;SDS011;8843;48.838;9.324;2022-09-23T15:16:29;3.77;;;2.73;;
17451;SDS011;8843;48.838;9.324;2022-09-23T15:18:57;4.00;;;2.90;;
17451;SDS011;8843;48.838;9.324;2022-09-23T15:21:37;5.23;;;2.93;;
17451;SDS011;8843;48.838;9.324;2022-09-23T15:27:00;4.90;;;2.87;;
17451;SDS011;8843;48.838;9.324;2022-09-23T15:29:27;6.13;;;2.60;;
17451;SDS011;8843;48.838;9.324;2022-09-23T15:31:58;4.33;;;2.70;;
17451;SDS011;8843;48.838;9.324;2022-09-23T15:34:25;5.90;;;2.90;;
17451;SDS011;8843;48.838;9.324;2022-09-23T15:36:52;4.97;;;2.90;;
17451;SDS011;8843;48.838;9.324;2022-09-23T15:39:19;3.70;;;2.77;;
17451;SDS011;8843;48.838;9.324;2022-09-23T15:41:46;4.03;;;3.20;;
17451;SDS011;8843;48.838;9.324;2022-09-23T15:44:13;4.70;;;2.53;;
17451;SDS011;8843;48.838;9.324;2022-09-23T15:46:43;3.57;;;2.37;;
17451;SDS011;8843;48.838;9.324;2022-09-23T15:49:20;3.73;;;2.90;;
17451;SDS011;8843;48.838;9.324;2022-09-23T15:51:51;4.70;;;2.80;;
17451;SDS011;8843;48.838;9.324;2022-09-23T15:54:21;6.23;;;2.90;;
17451;SDS011;8843;48.838;9.324;2022-09-23T15:56:48;7.13;;;3.10;;
17451;SDS011;8843;48.838;9.324;2022-09-23T15:59:15;3.63;;;3.10;;